地図

経路データ

SID SEASON NUMBER BASIN SUBBASIN NAME ISO_TIME NATURE LAT LON WMO_WIND WMO_PRES WMO_AGENCY TRACK_TYPE DIST2LAND LANDFALL IFLAG USA_AGENCY USA_ATCF_ID USA_LAT USA_LON USA_RECORD USA_STATUS USA_WIND USA_PRES USA_SSHS USA_R34_NE USA_R34_SE USA_R34_SW USA_R34_NW USA_R50_NE USA_R50_SE USA_R50_SW USA_R50_NW USA_R64_NE USA_R64_SE USA_R64_SW USA_R64_NW USA_POCI USA_ROCI USA_RMW USA_EYE TOKYO_LAT TOKYO_LON TOKYO_GRADE TOKYO_WIND TOKYO_PRES TOKYO_R50_DIR TOKYO_R50_LONG TOKYO_R50_SHORT TOKYO_R30_DIR TOKYO_R30_LONG TOKYO_R30_SHORT TOKYO_LAND CMA_LAT CMA_LON CMA_CAT CMA_WIND CMA_PRES HKO_LAT HKO_LON HKO_CAT HKO_WIND HKO_PRES NEWDELHI_LAT NEWDELHI_LON NEWDELHI_GRADE NEWDELHI_WIND NEWDELHI_PRES NEWDELHI_CI NEWDELHI_DP NEWDELHI_POCI REUNION_LAT REUNION_LON REUNION_TYPE REUNION_WIND REUNION_PRES REUNION_TNUM REUNION_CI REUNION_RMW REUNION_R34_NE REUNION_R34_SE REUNION_R34_SW REUNION_R34_NW REUNION_R50_NE REUNION_R50_SE REUNION_R50_SW REUNION_R50_NW REUNION_R64_NE REUNION_R64_SE REUNION_R64_SW REUNION_R64_NW BOM_LAT BOM_LON BOM_TYPE BOM_WIND BOM_PRES BOM_TNUM BOM_CI BOM_RMW BOM_R34_NE BOM_R34_SE BOM_R34_SW BOM_R34_NW BOM_R50_NE BOM_R50_SE BOM_R50_SW BOM_R50_NW BOM_R64_NE BOM_R64_SE BOM_R64_SW BOM_R64_NW BOM_ROCI BOM_POCI BOM_EYE BOM_POS_METHOD BOM_PRES_METHOD NADI_LAT NADI_LON NADI_CAT NADI_WIND NADI_PRES WELLINGTON_LAT WELLINGTON_LON WELLINGTON_WIND WELLINGTON_PRES DS824_LAT DS824_LON DS824_STAGE DS824_WIND DS824_PRES TD9636_LAT TD9636_LON TD9636_STAGE TD9636_WIND TD9636_PRES TD9635_LAT TD9635_LON TD9635_WIND TD9635_PRES TD9635_ROCI NEUMANN_LAT NEUMANN_LON NEUMANN_CLASS NEUMANN_WIND NEUMANN_PRES MLC_LAT MLC_LON MLC_CLASS MLC_WIND MLC_PRES USA_GUST BOM_GUST BOM_GUST_PER REUNION_GUST REUNION_GUST_PER USA_SEAHGT USA_SEARAD_NE USA_SEARAD_SE USA_SEARAD_SW USA_SEARAD_NW STORM_SPEED STORM_DIR
1934295N17148 1934 70 WP MM NOT_NAMED 1934-10-21 21:00:00 NR 16.7000 147.500 main 2105 2105 __________O___ -1 16.7000 147.500 4 19 287
1934295N17148 1934 70 WP MM NOT_NAMED 1934-10-22 00:00:00 NR 16.9778 146.547 main 2103 2058 __________P___ -1 16.9778 146.547 4 19 286
1934295N17148 1934 70 WP MM NOT_NAMED 1934-10-22 03:00:00 NR 17.2225 145.624 main 2056 2000 __________P___ -1 17.2225 145.624 4 18 284
1934295N17148 1934 70 WP MM NOT_NAMED 1934-10-22 06:00:00 NR 17.4058 144.763 main 2000 1955 __________P___ -1 17.4058 144.763 4 16 280
1934295N17148 1934 70 WP MM NOT_NAMED 1934-10-22 09:00:00 NR 17.5000 144.000 main 1955 1931 __________O___ -1 17.5000 144.000 4 13 274
1934295N17148 1934 70 WP MM NOT_NAMED 1934-10-22 12:00:00 NR 17.4898 143.355 main 1931 1915 __________P___ -1 17.4898 143.355 4 11 265
1934295N17148 1934 70 WP MM NOT_NAMED 1934-10-22 15:00:00 NR 17.4074 142.801 main 1919 1894 __________P___ -1 17.4074 142.801 4 10 259
1934295N17148 1934 70 WP MM NOT_NAMED 1934-10-22 18:00:00 NR 17.2965 142.296 main 1894 1840 __________P___ -1 17.2965 142.296 4 10 258
1934295N17148 1934 70 WP MM NOT_NAMED 1934-10-22 21:00:00 NR 17.2000 141.800 main 1840 1785 __________O___ -1 17.2000 141.800 4 10 262
1934295N17148 1934 70 WP MM NOT_NAMED 1934-10-23 00:00:00 NR 17.1459 141.225 main 1775 1724 __________P___ -1 17.1459 141.225 4 11 266
1934295N17148 1934 70 WP MM NOT_NAMED 1934-10-23 03:00:00 NR 17.1176 140.655 main 1724 1663 __________P___ -1 17.1176 140.655 4 11 269
1934295N17148 1934 70 WP MM NOT_NAMED 1934-10-23 06:00:00 NR 17.1304 140.107 main 1663 1616 __________P___ -1 17.1304 140.107 4 10 275
1934295N17148 1934 70 WP MM NOT_NAMED 1934-10-23 09:00:00 NR 17.2000 139.600 main 1616 1579 __________O___ -1 17.2000 139.600 4 10 283
1934295N17148 1934 70 WP MM NOT_NAMED 1934-10-23 12:00:00 NR 17.3461 139.137 main 1569 1537 __________P___ -1 17.3461 139.137 4 9 292
1934295N17148 1934 70 WP MM NOT_NAMED 1934-10-23 15:00:00 NR 17.5470 138.718 main 1537 1516 __________P___ -1 17.5470 138.718 4 9 299
1934295N17148 1934 70 WP MM NOT_NAMED 1934-10-23 18:00:00 NR 17.7744 138.340 main 1510 1490 __________P___ -1 17.7744 138.340 4 8 304
1934295N17148 1934 70 WP MM NOT_NAMED 1934-10-23 21:00:00 NR 18.0000 138.000 main 1490 1466 __________O___ -1 18.0000 138.000 4 7 301
1934295N17148 1934 70 WP MM NOT_NAMED 1934-10-24 00:00:00 NR 18.1575 137.680 main 1471 1447 __________P___ -1 18.1575 137.680 4 7 299
1934295N17148 1934 70 WP MM NOT_NAMED 1934-10-24 03:00:00 NR 18.3121 137.397 main 1447 1433 __________P___ -1 18.3121 137.397 4 6 303
1934295N17148 1934 70 WP MM NOT_NAMED 1934-10-24 06:00:00 NR 18.4857 137.140 main 1429 1421 __________P___ -1 18.4857 137.140 4 6 309
1934295N17148 1934 70 WP MM NOT_NAMED 1934-10-24 09:00:00 NR 18.7000 136.900 main 1421 1414 __________O___ -1 18.7000 136.900 4 7 317
1934295N17148 1934 70 WP MM NOT_NAMED 1934-10-24 12:00:00 NR 18.9737 136.652 main 1420 1407 __________P___ -1 18.9737 136.652 4 7 322
1934295N17148 1934 70 WP MM NOT_NAMED 1934-10-24 15:00:00 NR 19.2899 136.420 main 1410 1387 __________P___ -1 19.2899 136.420 4 8 327
1934295N17148 1934 70 WP MM NOT_NAMED 1934-10-24 18:00:00 NR 19.6362 136.202 main 1387 1338 __________P___ -1 19.6362 136.202 4 8 331
1934295N17148 1934 70 WP MM NOT_NAMED 1934-10-24 21:00:00 NR 20.0000 136.000 main 1338 1299 __________O___ -1 20.0000 136.000 4 8 327
1934295N17148 1934 70 WP MM NOT_NAMED 1934-10-25 00:00:00 NR 20.3200 135.739 main 1295 1256 __________P___ -1 20.3200 135.739 4 8 325
1934295N17148 1934 70 WP MM NOT_NAMED 1934-10-25 03:00:00 NR 20.6600 135.502 main 1246 1207 __________P___ -1 20.6600 135.502 4 8 333
1934295N17148 1934 70 WP MM NOT_NAMED 1934-10-25 06:00:00 NR 21.0449 135.339 main 1207 1155 __________P___ -1 21.0449 135.339 4 9 347
1934295N17148 1934 70 WP MM NOT_NAMED 1934-10-25 09:00:00 NR 21.5000 135.300 main 1155 1108 __________O___ -1 21.5000 135.300 4 10 4
1934295N17148 1934 70 WP MM NOT_NAMED 1934-10-25 12:00:00 NR 22.0611 135.416 main 1097 1046 __________P___ -1 22.0611 135.416 4 12 16
1934295N17148 1934 70 WP MM NOT_NAMED 1934-10-25 15:00:00 NR 22.6898 135.662 main 1050 1006 __________P___ -1 22.6898 135.662 4 14 23
1934295N17148 1934 70 WP MM NOT_NAMED 1934-10-25 18:00:00 NR 23.3486 136.001 main 1006 961 __________P___ -1 23.3486 136.001 4 15 27
1934295N17148 1934 70 WP MM NOT_NAMED 1934-10-25 21:00:00 NR 24.0000 136.400 main 961 925 __________O___ -1 24.0000 136.400 4 15 30
1934295N17148 1934 70 WP MM NOT_NAMED 1934-10-26 00:00:00 NR 24.6346 136.818 main 925 894 __________P___ -1 24.6346 136.818 4 15 33
1934295N17148 1934 70 WP MM NOT_NAMED 1934-10-26 03:00:00 NR 25.2483 137.283 main 900 867 __________P___ -1 25.2483 137.283 4 15 36
1934295N17148 1934 70 WP MM NOT_NAMED 1934-10-26 06:00:00 NR 25.8127 137.756 main 869 825 __________P___ -1 25.8127 137.756 4 13 38
1934295N17148 1934 70 WP MM NOT_NAMED 1934-10-26 09:00:00 NR 26.3000 138.200 main 825 798 __________O___ -1 26.3000 138.200 4 11 40
1934295N17148 1934 70 WP MM NOT_NAMED 1934-10-26 12:00:00 NR 26.6576 138.544 main 791 780 __________P___ -1 26.6576 138.544 4 9 42
1934295N17148 1934 70 WP MM NOT_NAMED 1934-10-26 15:00:00 NR 26.9435 138.854 main 783 760 __________P___ -1 26.9435 138.854 4 8 45
1934295N17148 1934 70 WP MM NOT_NAMED 1934-10-26 18:00:00 NR 27.2076 139.162 main 764 742 __________P___ -1 27.2076 139.162 4 8 46
1934295N17148 1934 70 WP MM NOT_NAMED 1934-10-26 21:00:00 NR 27.5000 139.500 main 747 737 __________O___ -1 27.5000 139.500 4 7 47
1934295N17148 1934 70 WP MM NOT_NAMED 1934-10-27 00:00:00 NR 27.6792 139.732 main 737 727 __________P___ -1 27.6792 139.732 4 6 48
1934295N17148 1934 70 WP MM NOT_NAMED 1934-10-27 03:00:00 NR 27.9256 140.025 main 732 718 __________P___ -1 27.9256 140.025 4 10 44
1934295N17148 1934 70 WP MM NOT_NAMED 1934-10-27 06:00:00 NR 28.3845 140.503 main 710 653 __________P___ -1 28.3845 140.503 4 17 41
1934295N17148 1934 70 WP MM NOT_NAMED 1934-10-27 09:00:00 NR 29.2000 141.300 main 646 541 __________O___ -1 29.2000 141.300 4 30 41
1934295N17148 1934 70 WP MM NOT_NAMED 1934-10-27 12:00:00 NR 30.6499 142.742 main 546 490 __________P___ -1 30.6499 142.742 4 43 41
1934295N17148 1934 70 WP MM NOT_NAMED 1934-10-27 15:00:00 NR 32.4183 144.542 main 490 490 __________P___ -1 32.4183 144.542 4 48 41
1934295N17148 1934 70 WP MM NOT_NAMED 1934-10-27 18:00:00 NR 34.2487 146.456 main 535 535 __________P___ -1 34.2487 146.456 4 46 41
1934295N17148 1934 70 WP MM NOT_NAMED 1934-10-27 21:00:00 NR 35.9000 148.200 main 649 649 __________O___ -1 35.9000 148.200 4 35 40
1934295N17148 1934 70 WP MM NOT_NAMED 1934-10-28 00:00:00 NR 36.9472 149.206 main 682 680 __________P___ -1 36.9472 149.206 4 24 36
1934295N17148 1934 70 WP MM NOT_NAMED 1934-10-28 03:00:00 NR 37.8337 149.966 main 709 663 __________P___ -1 37.8337 149.966 4 21 34
1934295N17148 1934 70 WP MM NOT_NAMED 1934-10-28 06:00:00 NR 38.7300 150.714 main 663 638 __________P___ -1 38.7300 150.714 4 24 35
1934295N17148 1934 70 WP MM NOT_NAMED 1934-10-28 09:00:00 NR 39.8000 151.700 main 638 566 __________O___ -1 39.8000 151.700 4 31 38
1934295N17148 1934 70 WP MM NOT_NAMED 1934-10-28 12:00:00 NR 41.1580 153.140 main 560 516 __________P___ -1 41.1580 153.140 4 39 40
1934295N17148 1934 70 WP MM NOT_NAMED 1934-10-28 15:00:00 NR 42.7459 155.026 main 522 520 __________P___ -1 42.7459 155.026 4 45 43
1934295N17148 1934 70 WP MM NOT_NAMED 1934-10-28 18:00:00 NR 44.4606 157.278 main 565 534 __________P___ -1 44.4606 157.278 4 48 45
1934295N17148 1934 70 WP MM NOT_NAMED 1934-10-28 21:00:00 NR 46.2000 159.800 main 529 __________O___ -1 46.2000 159.800 4 49 45

デジタル台風データ・検索

IBTrACS Databaseについて

本データベースは、米国NOAAが公開する1842年以降の世界の熱帯低気圧のベストトラックデータアーカイブInternational Best Track Archive for Climate Stewardship (IBTrACS)を、ウェブで閲覧しやすい形式に変換したものです。

最終更新日:2021-10-21